createdAt,value
2016-07-04T00:00:01.416Z,0
2016-07-04T00:01:01.691Z,0
2016-07-04T00:02:01.345Z,0
2016-07-04T00:03:01.389Z,0
2016-07-04T00:04:01.404Z,0
2016-07-04T00:05:01.442Z,0
2016-07-04T00:06:01.371Z,0
2016-07-04T00:07:01.495Z,0
2016-07-04T00:08:01.530Z,0
2016-07-04T00:09:01.573Z,0
2016-07-04T00:10:01.345Z,0
2016-07-04T00:11:01.379Z,0
2016-07-04T00:12:01.419Z,0
2016-07-04T00:13:01.435Z,0
2016-07-04T00:14:01.473Z,0
2016-07-04T00:15:01.436Z,0
2016-07-04T00:16:01.566Z,0
2016-07-04T00:17:01.476Z,0
2016-07-04T00:18:01.419Z,0
2016-07-04T00:19:01.391Z,0
2016-07-04T00:20:01.439Z,0
2016-07-04T00:21:01.541Z,0
2016-07-04T00:22:01.615Z,0
2016-07-04T00:23:01.499Z,0
2016-07-04T00:24:01.024Z,0
2016-07-04T00:25:01.377Z,0
2016-07-04T00:26:01.431Z,0
2016-07-04T00:27:01.499Z,0
2016-07-04T00:28:01.477Z,0
2016-07-04T00:29:01.921Z,0
2016-07-04T00:30:01.456Z,0
2016-07-04T00:31:01.360Z,0
2016-07-04T00:32:01.458Z,0
2016-07-04T00:33:01.513Z,0
2016-07-04T00:34:01.446Z,0
2016-07-04T00:35:01.580Z,0
2016-07-04T00:36:01.289Z,0
2016-07-04T00:37:01.439Z,0
2016-07-04T00:38:01.360Z,0
2016-07-04T00:39:01.252Z,0
2016-07-04T00:40:01.522Z,0
2016-07-04T00:41:01.403Z,0
2016-07-04T00:42:01.407Z,0
2016-07-04T00:43:01.338Z,0
2016-07-04T00:44:01.151Z,0
2016-07-04T00:45:01.483Z,0
2016-07-04T00:46:01.379Z,0
2016-07-04T00:47:01.442Z,0
2016-07-04T00:48:01.486Z,0
2016-07-04T00:49:01.318Z,0
2016-07-04T00:50:01.434Z,0
2016-07-04T00:51:01.539Z,0
2016-07-04T01:03:19.570Z,0
2016-07-04T01:04:19.438Z,0
2016-07-04T01:05:19.309Z,0
2016-07-04T01:06:19.720Z,0
2016-07-04T01:07:20.286Z,0
2016-07-04T01:08:20.250Z,0
2016-07-04T01:09:19.462Z,0
2016-07-04T01:10:19.351Z,0
2016-07-04T01:11:19.595Z,0
2016-07-04T01:12:19.391Z,0
2016-07-04T01:13:19.426Z,0
2016-07-04T01:14:19.411Z,0
2016-07-04T01:15:19.270Z,0
2016-07-04T01:16:19.292Z,0
2016-07-04T01:17:19.312Z,0
2016-07-04T01:18:19.332Z,0
2016-07-04T01:19:20.018Z,0
2016-07-04T01:20:20.085Z,0
2016-07-04T01:21:19.477Z,0
2016-07-04T01:22:19.313Z,0
2016-07-04T01:23:19.411Z,0
2016-07-04T01:24:20.414Z,0
2016-07-04T01:25:19.350Z,0
2016-07-04T01:26:19.437Z,0
2016-07-04T01:27:19.845Z,0
2016-07-04T01:28:19.325Z,0
2016-07-04T01:29:19.414Z,0
2016-07-04T01:30:19.381Z,0
2016-07-04T01:31:19.651Z,0
2016-07-04T01:32:19.248Z,0
2016-07-04T01:33:19.213Z,0
2016-07-04T01:46:19.712Z,0
2016-07-04T01:46:37.057Z,0
2016-07-04T01:47:37.071Z,0
2016-07-04T02:00:37.830Z,0
2016-07-04T02:00:55.452Z,0
2016-07-04T02:01:55.320Z,0
2016-07-04T02:02:55.340Z,0
2016-07-04T02:03:55.460Z,0
2016-07-04T02:04:56.586Z,0
2016-07-04T02:05:55.219Z,0
2016-07-04T02:06:55.200Z,0
2016-07-04T02:07:55.262Z,0
2016-07-04T02:08:56.397Z,0
2016-07-04T02:09:55.676Z,0
2016-07-04T02:10:55.324Z,0
2016-07-04T02:11:56.743Z,0
2016-07-04T02:12:55.250Z,0
2016-07-04T02:13:56.124Z,0
2016-07-04T02:14:56.418Z,0
2016-07-04T02:15:55.332Z,0
2016-07-04T02:16:56.194Z,0
2016-07-04T02:17:55.181Z,0
2016-07-04T02:18:55.270Z,0
2016-07-04T02:19:55.375Z,0
2016-07-04T02:20:55.233Z,0
2016-07-04T02:21:55.206Z,0
2016-07-04T02:22:55.227Z,0
2016-07-04T02:23:55.257Z,0
2016-07-04T02:24:54.785Z,0
2016-07-04T02:25:55.347Z,0
2016-07-04T02:26:55.231Z,0
2016-07-04T02:27:55.315Z,0
2016-07-04T02:28:55.326Z,0
2016-07-04T02:29:55.527Z,0
2016-07-04T02:30:55.234Z,0
2016-07-04T02:31:55.531Z,4
2016-07-04T02:32:55.388Z,4
2016-07-04T02:33:55.283Z,4
2016-07-04T02:34:55.187Z,0
2016-07-04T02:35:55.511Z,0
2016-07-04T02:36:55.342Z,4
2016-07-04T02:37:55.457Z,4
2016-07-04T02:38:55.193Z,4
2016-07-04T02:39:55.527Z,0
2016-07-04T02:40:54.985Z,4
2016-07-04T02:41:55.312Z,4
2016-07-04T02:42:55.045Z,4
2016-07-04T02:43:55.913Z,8
2016-07-04T02:44:55.928Z,8
2016-07-04T02:45:55.312Z,8
2016-07-04T02:46:55.316Z,8
2016-07-04T02:47:54.980Z,8
2016-07-04T02:48:55.267Z,12
2016-07-04T02:49:55.237Z,12
2016-07-04T02:50:55.249Z,16
2016-07-04T02:51:55.176Z,20
2016-07-04T02:52:55.239Z,20
2016-07-04T02:53:55.288Z,20
2016-07-04T02:54:55.248Z,20
2016-07-04T02:55:55.372Z,24
2016-07-04T02:56:55.331Z,28
2016-07-04T02:57:55.252Z,32
2016-07-04T02:58:55.290Z,36
2016-07-04T02:59:55.409Z,40
2016-07-04T03:00:55.320Z,40
2016-07-04T03:01:55.189Z,44
2016-07-04T03:02:56.320Z,48
2016-07-04T03:03:55.170Z,52
2016-07-04T03:04:55.467Z,56
2016-07-04T03:05:56.271Z,60
2016-07-04T03:06:55.232Z,68
2016-07-04T03:07:55.289Z,68
2016-07-04T03:08:55.308Z,76
2016-07-04T03:09:55.280Z,84
2016-07-04T03:10:55.308Z,92
2016-07-04T03:11:55.290Z,100
2016-07-04T03:12:55.192Z,108
2016-07-04T03:13:55.206Z,112
2016-07-04T03:14:55.385Z,120
2016-07-04T03:15:55.218Z,128
2016-07-04T03:16:55.306Z,136
2016-07-04T03:17:55.097Z,144
2016-07-04T03:18:55.205Z,156
2016-07-04T03:19:55.187Z,168
2016-07-04T03:20:55.159Z,176
2016-07-04T03:21:55.185Z,188
2016-07-04T03:22:55.221Z,204
2016-07-04T03:23:55.166Z,216
2016-07-04T03:24:55.144Z,228
2016-07-04T03:25:55.223Z,244
2016-07-04T03:26:55.989Z,260
2016-07-04T03:27:55.148Z,276
2016-07-04T03:28:55.205Z,288
2016-07-04T03:29:55.151Z,308
2016-07-04T03:30:55.102Z,328
2016-07-04T03:31:55.063Z,344
2016-07-04T03:32:55.091Z,360
2016-07-04T03:33:54.987Z,376
2016-07-04T03:34:55.068Z,388
2016-07-04T03:35:55.045Z,408
2016-07-04T03:36:55.023Z,420
2016-07-04T03:37:55.125Z,444
2016-07-04T03:38:54.991Z,464
2016-07-04T03:39:56.403Z,488
2016-07-04T03:40:55.065Z,508
2016-07-04T03:41:55.068Z,536
2016-07-04T03:42:55.103Z,556
2016-07-04T03:43:55.028Z,576
2016-07-04T03:44:54.986Z,588
2016-07-04T03:45:55.550Z,600
2016-07-04T03:46:55.062Z,620
2016-07-04T03:47:55.012Z,636
2016-07-04T03:48:55.023Z,652
2016-07-04T03:49:54.982Z,668
2016-07-04T03:50:55.071Z,684
2016-07-04T03:51:54.959Z,704
2016-07-04T03:52:55.065Z,732
2016-07-04T03:53:55.503Z,768
2016-07-04T03:54:54.983Z,788
2016-07-04T03:55:54.951Z,800
2016-07-04T03:56:54.912Z,808
2016-07-04T03:57:55.629Z,828
2016-07-04T03:58:55.093Z,840
2016-07-04T03:59:55.592Z,852
2016-07-04T04:00:55.071Z,900
2016-07-04T04:01:54.973Z,932
2016-07-04T04:02:55.404Z,972
2016-07-04T04:03:54.944Z,996
2016-07-04T04:04:55.053Z,1008
2016-07-04T04:05:54.964Z,1044
2016-07-04T04:06:54.932Z,1096
2016-07-04T04:07:55.004Z,1136
2016-07-04T04:20:55.648Z,1492
2016-07-04T04:21:12.599Z,1500
2016-07-04T04:22:12.777Z,1540
2016-07-04T04:23:12.692Z,1556
2016-07-04T04:24:12.601Z,1536
2016-07-04T04:25:12.534Z,1528
2016-07-04T04:26:12.593Z,1552
2016-07-04T04:27:12.518Z,1596
2016-07-04T04:28:12.552Z,1684
2016-07-04T04:29:12.499Z,1768
2016-07-04T04:30:12.609Z,1800
2016-07-04T04:31:12.521Z,1808
2016-07-04T04:32:12.563Z,1784
2016-07-04T04:33:12.633Z,1764
2016-07-04T04:34:12.495Z,1744
2016-07-04T04:35:12.611Z,1720
2016-07-04T04:36:12.573Z,1688
2016-07-04T04:37:12.555Z,1656
2016-07-04T04:38:12.691Z,1636
2016-07-04T04:39:12.552Z,1608
2016-07-04T04:40:12.625Z,1552
2016-07-04T04:41:12.565Z,1536
2016-07-04T04:42:12.500Z,1580
2016-07-04T04:43:12.662Z,1624
2016-07-04T04:44:12.602Z,1700
2016-07-04T04:45:12.538Z,1728
2016-07-04T04:46:12.572Z,1764
2016-07-04T04:47:12.607Z,1780
2016-07-04T04:48:12.524Z,1776
2016-07-04T04:49:12.497Z,1760
2016-07-04T04:50:12.599Z,1732
2016-07-04T04:51:12.560Z,1748
2016-07-04T04:52:12.617Z,1772
2016-07-04T04:53:12.546Z,1812
2016-07-04T04:54:12.029Z,1864
2016-07-04T04:55:12.627Z,1900
2016-07-04T04:56:12.496Z,1972
2016-07-04T04:57:12.705Z,2020
2016-07-04T04:58:12.686Z,2084
2016-07-04T04:59:12.738Z,2236
2016-07-04T05:00:12.606Z,2340
2016-07-04T05:01:12.545Z,2408
2016-07-04T05:02:12.628Z,2500
2016-07-04T05:03:12.696Z,2592
2016-07-04T05:04:12.706Z,2648
2016-07-04T05:05:12.519Z,2672
2016-07-04T05:06:12.721Z,2660
2016-07-04T05:07:12.665Z,2620
2016-07-04T05:08:12.807Z,2580
2016-07-04T05:09:12.628Z,2540
2016-07-04T05:10:12.567Z,2588
2016-07-04T05:11:13.322Z,2692
2016-07-04T05:12:12.720Z,2844
2016-07-04T05:13:13.490Z,2992
2016-07-04T05:14:12.762Z,3152
2016-07-04T05:15:12.833Z,3244
2016-07-04T05:16:12.638Z,3320
2016-07-04T05:17:12.747Z,3308
2016-07-04T05:18:12.649Z,3312
2016-07-04T05:19:12.623Z,3436
2016-07-04T05:20:13.329Z,3640
2016-07-04T05:21:12.650Z,3884
2016-07-04T05:22:12.740Z,4072
2016-07-04T05:23:12.665Z,4080
2016-07-04T05:24:12.588Z,4072
2016-07-04T05:25:12.814Z,3936
2016-07-04T05:26:12.618Z,3760
2016-07-04T05:27:12.553Z,3736
2016-07-04T05:28:12.627Z,3656
2016-07-04T05:29:12.499Z,3604
2016-07-04T05:30:12.658Z,3584
2016-07-04T05:31:12.571Z,3488
2016-07-04T05:32:12.907Z,3572
2016-07-04T05:33:12.495Z,3780
2016-07-04T05:34:13.204Z,3908
2016-07-04T05:35:13.194Z,4040
2016-07-04T05:36:12.990Z,4172
2016-07-04T05:38:18.086Z,4580
2016-07-04T05:39:15.607Z,4736
2016-07-04T05:40:12.665Z,4900
2016-07-04T05:41:12.468Z,5152
2016-07-04T05:42:12.644Z,5412
2016-07-04T05:43:12.705Z,5632
2016-07-04T05:44:12.542Z,5828
2016-07-04T05:45:12.563Z,5936
2016-07-04T05:46:12.643Z,6092
2016-07-04T05:47:12.575Z,6168
2016-07-04T05:48:12.930Z,6264
2016-07-04T05:49:13.187Z,6652
2016-07-04T05:50:12.942Z,7012
2016-07-04T05:51:12.860Z,7312
2016-07-04T05:52:12.674Z,7788
2016-07-04T05:53:12.779Z,12744
2016-07-04T05:54:12.853Z,8704
2016-07-04T05:55:12.644Z,8020
2016-07-04T05:56:12.596Z,8520
2016-07-04T05:57:12.862Z,12012
2016-07-04T05:58:12.880Z,19360
2016-07-04T05:59:12.679Z,17408
2016-07-04T06:00:13.105Z,11528
2016-07-04T06:01:12.694Z,11140
2016-07-04T06:02:12.744Z,11780
2016-07-04T06:03:12.690Z,8924
2016-07-04T06:04:12.906Z,8736
2016-07-04T06:05:12.703Z,8428
2016-07-04T06:06:13.274Z,8156
2016-07-04T06:07:12.818Z,7972
2016-07-04T06:08:12.736Z,7956
2016-07-04T06:09:12.888Z,7868
2016-07-04T06:10:12.822Z,8084
2016-07-04T06:11:12.880Z,8020
2016-07-04T06:12:13.708Z,7232
2016-07-04T06:13:14.361Z,7004
2016-07-04T06:14:12.755Z,6860
2016-07-04T06:15:12.765Z,6760
2016-07-04T06:16:12.653Z,6760
2016-07-04T06:17:12.889Z,6944
2016-07-04T06:18:12.891Z,7252
2016-07-04T06:19:12.948Z,7496
2016-07-04T06:20:14.150Z,7824
2016-07-04T06:21:12.954Z,8168
2016-07-04T06:22:12.815Z,8672
2016-07-04T06:23:12.752Z,9064
2016-07-04T06:24:12.791Z,9512
2016-07-04T06:25:13.655Z,10288
2016-07-04T06:26:12.878Z,10604
2016-07-04T06:27:12.665Z,11616
2016-07-04T06:28:12.832Z,11412
2016-07-04T06:29:12.723Z,11068
2016-07-04T06:30:13.305Z,10084
2016-07-04T06:31:13.028Z,9796
2016-07-04T06:32:12.871Z,9712
2016-07-04T06:33:12.952Z,9376
2016-07-04T06:34:12.689Z,9300
2016-07-04T06:35:13.248Z,8884
2016-07-04T06:36:13.281Z,8548
2016-07-04T06:37:12.781Z,8508
2016-07-04T06:38:12.627Z,8484
2016-07-04T06:39:12.686Z,8544
2016-07-04T06:40:13.068Z,8500
2016-07-04T06:41:12.736Z,8440
2016-07-04T06:42:12.812Z,8472
2016-07-04T06:43:12.640Z,8660
2016-07-04T06:44:12.790Z,8972
2016-07-04T06:45:12.567Z,9328
2016-07-04T06:46:12.668Z,9604
2016-07-04T06:47:12.967Z,9752
2016-07-04T06:48:12.930Z,9928
2016-07-04T06:49:12.909Z,10108
2016-07-04T06:50:13.087Z,10208
2016-07-04T06:51:14.090Z,10080
2016-07-04T06:52:12.584Z,9972
2016-07-04T06:53:12.697Z,10092
2016-07-04T06:54:12.728Z,10296
2016-07-04T06:55:12.746Z,10600
2016-07-04T06:56:12.652Z,10840
2016-07-04T06:57:13.838Z,10764
2016-07-04T06:58:12.823Z,10440
2016-07-04T06:59:12.696Z,10032
2016-07-04T07:00:13.620Z,9356
2016-07-04T07:01:12.570Z,8716
2016-07-04T07:02:12.547Z,8112
2016-07-04T07:03:12.511Z,7616
2016-07-04T07:04:12.067Z,7132
2016-07-04T07:05:12.824Z,7036
2016-07-04T07:06:13.369Z,6872
2016-07-04T07:07:12.636Z,6776
2016-07-04T07:08:12.606Z,6924
2016-07-04T07:09:12.630Z,6792
2016-07-04T07:10:12.572Z,7120
2016-07-04T07:11:12.727Z,7520
2016-07-04T07:12:12.722Z,7040
2016-07-04T07:13:12.730Z,6624
2016-07-04T07:14:12.667Z,6516
2016-07-04T07:15:12.737Z,6540
2016-07-04T07:16:14.934Z,6768
2016-07-04T07:17:12.865Z,6880
2016-07-04T07:18:12.549Z,7152
2016-07-04T07:19:12.765Z,7480
2016-07-04T07:20:12.667Z,7684
2016-07-04T07:21:12.723Z,7524
2016-07-04T07:22:12.731Z,7160
2016-07-04T07:23:12.666Z,6940
2016-07-04T07:24:12.627Z,6692
2016-07-04T07:25:12.601Z,7404
2016-07-04T07:26:12.868Z,4396
2016-07-04T07:27:12.795Z,4772
2016-07-04T07:28:12.679Z,9032
2016-07-04T07:29:12.788Z,9632
2016-07-04T07:30:12.711Z,8480
2016-07-04T07:31:12.614Z,10560
2016-07-04T07:32:12.507Z,11068
2016-07-04T07:33:12.694Z,11832
2016-07-04T07:34:12.526Z,12704
2016-07-04T07:35:12.597Z,15552
2016-07-04T07:36:12.582Z,13952
2016-07-04T07:37:12.711Z,14976
2016-07-04T07:38:13.159Z,14424
2016-07-04T07:39:12.635Z,14256
2016-07-04T07:40:12.789Z,14500
2016-07-04T07:41:12.788Z,14604
2016-07-04T07:42:13.062Z,14140
2016-07-04T07:43:12.766Z,14004
2016-07-04T07:44:13.537Z,14316
2016-07-04T07:45:12.515Z,13536
2016-07-04T07:46:12.582Z,13116
2016-07-04T07:47:12.803Z,13796
2016-07-04T07:48:12.725Z,14304
2016-07-04T07:49:13.637Z,32000
2016-07-04T07:50:12.869Z,52096
2016-07-04T07:51:13.628Z,61504
2016-07-04T07:52:12.787Z,60192
2016-07-04T07:53:13.453Z,57920
2016-07-04T07:54:12.573Z,57568
2016-07-04T07:55:12.680Z,60384
2016-07-04T07:56:12.731Z,63264
2016-07-04T07:57:12.695Z,67680
2016-07-04T07:58:12.642Z,66560
2016-07-04T07:59:12.583Z,59136
2016-07-04T08:00:12.680Z,54432
2016-07-04T08:01:12.565Z,56480
2016-07-04T08:02:12.596Z,59488
2016-07-04T08:03:12.544Z,59328
2016-07-04T08:04:12.632Z,57696
2016-07-04T08:05:12.550Z,57920
2016-07-04T08:06:12.538Z,61696
2016-07-04T08:07:12.510Z,68480
2016-07-04T08:08:12.543Z,72416
2016-07-04T08:09:12.619Z,71136
2016-07-04T08:10:13.041Z,62816
2016-07-04T08:11:12.636Z,55488
2016-07-04T08:12:12.580Z,53152
2016-07-04T08:13:12.535Z,57696
2016-07-04T08:14:12.543Z,63328
2016-07-04T08:15:12.630Z,63936
2016-07-04T08:16:12.729Z,60064
2016-07-04T08:17:13.677Z,54272
2016-07-04T08:18:15.087Z,51552
2016-07-04T08:19:16.636Z,54976
2016-07-04T08:20:19.093Z,59392
2016-07-04T08:21:17.985Z,60512
2016-07-04T08:22:12.519Z,63232
2016-07-04T08:23:12.605Z,59296
2016-07-04T08:24:12.549Z,54208
2016-07-04T08:25:12.530Z,45504
2016-07-04T08:26:13.201Z,48768
2016-07-04T08:27:12.512Z,47584
2016-07-04T08:28:12.534Z,53280
2016-07-04T08:29:12.538Z,48448
2016-07-04T08:30:12.566Z,59456
2016-07-04T08:31:12.483Z,60448
2016-07-04T08:32:12.495Z,60128
2016-07-04T08:33:12.506Z,57472
2016-07-04T08:34:12.670Z,51552
2016-07-04T08:35:12.823Z,45344
2016-07-04T08:36:12.535Z,44064
2016-07-04T08:37:12.609Z,49600
2016-07-04T08:38:12.548Z,58848
2016-07-04T08:39:12.633Z,68096
2016-07-04T08:40:12.597Z,70560
2016-07-04T08:41:12.621Z,67168
2016-07-04T08:42:12.668Z,59104
2016-07-04T08:43:12.629Z,53344
2016-07-04T08:44:12.629Z,53504
2016-07-04T08:45:20.739Z,55968
2016-07-04T08:47:12.702Z,66976
2016-07-04T08:48:12.618Z,69696
2016-07-04T08:52:17.734Z,56224
2016-07-04T08:53:25.341Z,57568
2016-07-04T08:54:12.780Z,60960
2016-07-04T08:55:12.985Z,68640
2016-07-04T08:56:24.642Z,69376
2016-07-04T08:57:18.031Z,65408
2016-07-04T08:58:18.100Z,59648
2016-07-04T08:59:13.145Z,60544
2016-07-04T09:26:12.600Z,103744
2016-07-04T09:27:12.578Z,101312
2016-07-04T09:28:12.599Z,101920
2016-07-04T09:29:12.545Z,100352
2016-07-04T09:30:12.585Z,107296
2016-07-04T09:31:12.562Z,102400
2016-07-04T09:32:12.583Z,98624
2016-07-04T09:33:12.559Z,94752
2016-07-04T09:34:12.607Z,88256
2016-07-04T09:35:13.459Z,17792
2016-07-04T09:36:12.619Z,20928
2016-07-04T09:49:13.393Z,113664
2016-07-04T09:49:30.014Z,10744
2016-07-04T09:50:30.275Z,11016
2016-07-04T09:51:30.031Z,12412
2016-07-04T09:52:30.038Z,13848
2016-07-04T09:53:30.052Z,11508
2016-07-04T09:54:30.061Z,10768
2016-07-04T09:55:30.006Z,10440
2016-07-04T09:56:30.036Z,9596
2016-07-04T09:57:30.027Z,9104
2016-07-04T09:58:30.027Z,9228
2016-07-04T09:59:30.030Z,9884
2016-07-04T10:00:30.084Z,10900
2016-07-04T10:01:30.672Z,11432
2016-07-04T10:02:30.726Z,12100
2016-07-04T10:03:30.089Z,103584
2016-07-04T10:04:30.059Z,97184
2016-07-04T10:16:47.401Z,16120
2016-07-04T10:17:47.335Z,16768
2016-07-04T10:18:47.407Z,14344
2016-07-04T10:19:47.350Z,14808
2016-07-04T10:20:47.371Z,20864
2016-07-04T10:21:47.346Z,76704
2016-07-04T10:22:47.606Z,69728
2016-07-04T10:23:47.370Z,75200
2016-07-04T10:24:47.469Z,73440
2016-07-04T10:25:47.392Z,75008
2016-07-04T10:26:47.456Z,43200
2016-07-04T10:27:47.342Z,12348
2016-07-04T10:28:47.386Z,10988
2016-07-04T10:29:47.350Z,11716
2016-07-04T10:30:47.444Z,99584
2016-07-04T10:31:47.370Z,99360
2016-07-04T10:32:48.345Z,98432
2016-07-04T10:33:47.332Z,94048
2016-07-04T10:34:47.355Z,91968
2016-07-04T10:35:47.401Z,84352
2016-07-04T10:36:47.365Z,76672
2016-07-04T10:37:47.394Z,69088
2016-07-04T10:38:47.591Z,62464
2016-07-04T10:39:47.461Z,55648
2016-07-04T10:40:47.399Z,50496
2016-07-04T10:41:47.426Z,49664
2016-07-04T10:42:47.384Z,57408
2016-07-04T10:43:47.422Z,66592
2016-07-04T10:44:47.520Z,78848
2016-07-04T10:45:47.363Z,88384
2016-07-04T10:46:47.502Z,96096
2016-07-04T10:47:47.377Z,96864
2016-07-04T10:48:47.496Z,94688
2016-07-04T10:49:47.422Z,88064
2016-07-04T10:50:47.405Z,84160
2016-07-04T10:51:47.412Z,76256
2016-07-04T10:52:47.419Z,76608
2016-07-04T10:53:47.433Z,75264
2016-07-04T10:54:47.435Z,32608
2016-07-04T10:55:47.379Z,30016
2016-07-04T10:56:47.398Z,34208
2016-07-04T10:57:47.419Z,29344
2016-07-04T10:58:47.401Z,64128
2016-07-04T10:59:47.408Z,70496
2016-07-04T11:00:47.443Z,24544
2016-07-04T11:01:47.397Z,17216
2016-07-04T11:02:47.446Z,22240
2016-07-04T11:03:48.992Z,26112
2016-07-04T11:04:49.961Z,15604
2016-07-04T11:05:47.512Z,14688
2016-07-04T11:06:47.409Z,14968
2016-07-04T11:07:47.423Z,16192
2016-07-04T11:08:47.391Z,18848
2016-07-04T11:09:47.382Z,20736
2016-07-04T11:10:47.401Z,19328
2016-07-04T11:11:47.360Z,28416
2016-07-04T11:12:47.416Z,25728
2016-07-04T11:13:47.408Z,20352
2016-07-04T11:14:47.403Z,19584
2016-07-04T11:15:47.476Z,19552
2016-07-04T11:16:47.404Z,17920
2016-07-04T11:17:47.442Z,18528
2016-07-04T11:18:47.470Z,19776
2016-07-04T11:19:47.712Z,21408
2016-07-04T11:20:47.427Z,29344
2016-07-04T11:21:47.397Z,34496
2016-07-04T11:22:47.410Z,102848
2016-07-04T11:23:47.436Z,99968
2016-07-04T11:24:47.487Z,31904
2016-07-04T11:25:47.489Z,77408
2016-07-04T11:26:48.359Z,40640
2016-07-04T11:27:47.799Z,19776
2016-07-04T11:28:47.466Z,16576
2016-07-04T11:29:47.390Z,17984
2016-07-04T11:30:47.471Z,17504
2016-07-04T11:31:47.483Z,16128
2016-07-04T11:32:47.445Z,15196
2016-07-04T11:33:47.437Z,15652
2016-07-04T11:34:47.435Z,15240
2016-07-04T11:35:47.421Z,17952
2016-07-04T11:36:47.457Z,17312
2016-07-04T11:37:47.470Z,15952
2016-07-04T11:38:47.496Z,17824
2016-07-04T11:39:47.509Z,19168
2016-07-04T11:40:47.433Z,15696
2016-07-04T11:41:47.427Z,21760
2016-07-04T11:42:47.440Z,15916
2016-07-04T11:43:47.441Z,14224
2016-07-04T11:44:47.520Z,25120
2016-07-04T11:45:47.425Z,17728
2016-07-04T11:46:47.376Z,14824
2016-07-04T11:47:47.454Z,13920
2016-07-04T11:48:47.396Z,60224
2016-07-04T11:49:47.467Z,86496
2016-07-04T11:50:47.429Z,30656
2016-07-04T11:51:48.424Z,59296
2016-07-04T11:52:47.557Z,95072
2016-07-04T11:53:47.426Z,97984
2016-07-04T11:54:47.442Z,101696
2016-07-04T11:55:47.485Z,105664
2016-07-04T11:56:47.458Z,109376
2016-07-04T11:57:47.435Z,107136
2016-07-04T11:58:47.448Z,94464
2016-07-04T11:59:47.438Z,82944
2016-07-04T12:00:47.448Z,99552
2016-07-04T12:01:47.408Z,103904
2016-07-04T12:02:47.509Z,99648
2016-07-04T12:03:47.400Z,95968
2016-07-04T12:04:47.480Z,36928
2016-07-04T12:05:47.467Z,23488
2016-07-04T12:06:47.442Z,85952
2016-07-04T12:07:47.431Z,22240
2016-07-04T12:08:48.449Z,17376
2016-07-04T12:09:47.470Z,16160
2016-07-04T12:10:47.496Z,16320
2016-07-04T12:11:47.475Z,14756
2016-07-04T12:12:47.465Z,14024
2016-07-04T12:13:47.499Z,14220
2016-07-04T12:14:48.651Z,13548
2016-07-04T12:15:47.438Z,12892
2016-07-04T12:16:48.150Z,12636
2016-07-04T12:17:47.605Z,12508
2016-07-04T12:18:48.022Z,14948
2016-07-04T12:19:47.447Z,11776
2016-07-04T12:20:47.477Z,11744
2016-07-04T12:21:47.448Z,11472
2016-07-04T12:22:47.457Z,11628
2016-07-04T12:23:47.415Z,11444
2016-07-04T12:24:47.495Z,10872
2016-07-04T12:25:47.446Z,11180
2016-07-04T12:26:47.514Z,11644
2016-07-04T12:27:47.426Z,12276
2016-07-04T12:28:48.469Z,37824
2016-07-04T12:29:47.473Z,19008
2016-07-04T12:30:50.565Z,14364
2016-07-04T12:31:47.466Z,12992
2016-07-04T12:32:47.441Z,11256
2016-07-04T12:33:47.465Z,9968
2016-07-04T12:34:47.445Z,9316
2016-07-04T12:35:47.763Z,11420
2016-07-04T12:36:47.563Z,28960
2016-07-04T12:37:47.464Z,36512
2016-07-04T12:38:47.441Z,27040
2016-07-04T12:39:48.198Z,89472
2016-07-04T12:40:47.476Z,89248
2016-07-04T12:41:47.492Z,86528
2016-07-04T12:42:47.476Z,86912
2016-07-04T12:43:47.747Z,92896
2016-07-04T12:44:47.498Z,100512
2016-07-04T12:45:47.494Z,98080
2016-07-04T12:46:49.337Z,11480
2016-07-04T12:47:47.478Z,8028
2016-07-04T12:48:47.488Z,7420
2016-07-04T12:49:47.477Z,7408
2016-07-04T12:50:47.573Z,10032
2016-07-04T12:51:47.463Z,47808
2016-07-04T12:52:47.469Z,24224
2016-07-04T12:53:47.495Z,10204
2016-07-04T12:54:47.510Z,10236
2016-07-04T12:55:47.560Z,10152
2016-07-04T12:56:47.501Z,9348
2016-07-04T12:57:47.524Z,8524
2016-07-04T12:58:47.468Z,8480
2016-07-04T12:59:47.487Z,8212
2016-07-04T13:00:47.463Z,7904
2016-07-04T13:01:47.498Z,7620
2016-07-04T13:02:47.467Z,7216
2016-07-04T13:03:47.483Z,7328
2016-07-04T13:04:47.461Z,7468
2016-07-04T13:05:47.504Z,7536
2016-07-04T13:06:47.485Z,7500
2016-07-04T13:07:47.484Z,7564
2016-07-04T13:08:47.486Z,9008
2016-07-04T13:09:47.490Z,91296
2016-07-04T13:10:47.464Z,100160
2016-07-04T13:11:47.514Z,24608
2016-07-04T13:12:50.557Z,96000
2016-07-04T13:13:48.304Z,22272
2016-07-04T13:14:47.469Z,66976
2016-07-04T13:15:47.442Z,20000
2016-07-04T13:16:47.542Z,20448
2016-07-04T13:17:47.467Z,23904
2016-07-04T13:18:47.485Z,14608
2016-07-04T13:19:47.494Z,12392
2016-07-04T13:20:47.522Z,11604
2016-07-04T13:21:47.555Z,11108
2016-07-04T13:22:47.502Z,11012
2016-07-04T13:23:47.477Z,10948
2016-07-04T13:24:47.533Z,11168
2016-07-04T13:25:47.471Z,11428
2016-07-04T13:26:47.545Z,10824
2016-07-04T13:27:47.510Z,10236
2016-07-04T13:28:47.537Z,11628
2016-07-04T13:29:47.525Z,11196
2016-07-04T13:30:47.549Z,25088
2016-07-04T13:31:47.505Z,11724
2016-07-04T13:32:47.531Z,14700
2016-07-04T13:33:47.504Z,18656
2016-07-04T13:34:47.521Z,14496
2016-07-04T13:35:47.515Z,13700
2016-07-04T13:36:47.534Z,14872
2016-07-04T13:37:47.751Z,14356
2016-07-04T13:38:47.543Z,17920
2016-07-04T13:39:47.514Z,16480
2016-07-04T13:40:47.485Z,28416
2016-07-04T13:41:47.492Z,18240
2016-07-04T13:42:47.491Z,15184
2016-07-04T13:43:47.515Z,16608
2016-07-04T13:44:47.497Z,17024
2016-07-04T13:45:47.524Z,15904
2016-07-04T13:46:47.554Z,16800
2016-07-04T13:47:48.110Z,17504
2016-07-04T13:48:47.502Z,19456
2016-07-04T13:49:47.517Z,16576
2016-07-04T13:50:47.719Z,16640
2016-07-04T13:51:47.526Z,15872
2016-07-04T13:52:47.485Z,13884
2016-07-04T13:53:47.762Z,12220
2016-07-04T13:54:48.347Z,11420
2016-07-04T13:55:48.444Z,11072
2016-07-04T13:56:47.550Z,10904
2016-07-04T13:57:47.527Z,10948
2016-07-04T13:58:47.537Z,10788
2016-07-04T13:59:47.486Z,10768
2016-07-04T14:00:47.520Z,9780
2016-07-04T14:01:48.613Z,9032
2016-07-04T14:02:51.365Z,8396
2016-07-04T14:03:47.786Z,8664
2016-07-04T14:04:47.526Z,8840
2016-07-04T14:05:47.532Z,8876
2016-07-04T14:06:47.590Z,8860
2016-07-04T14:07:47.509Z,9104
2016-07-04T14:08:47.601Z,9760
2016-07-04T14:09:47.555Z,9960
2016-07-04T14:10:47.567Z,10128
2016-07-04T14:11:47.540Z,9456
2016-07-04T14:12:47.537Z,10140
2016-07-04T14:13:48.384Z,11232
2016-07-04T14:14:47.520Z,12156
2016-07-04T14:15:47.635Z,12452
2016-07-04T14:16:48.315Z,12596
2016-07-04T14:17:47.586Z,12712
2016-07-04T14:18:47.646Z,11828
2016-07-04T14:19:47.666Z,10944
2016-07-04T14:20:47.551Z,10792
2016-07-04T14:21:47.594Z,10756
2016-07-04T14:22:47.637Z,10416
2016-07-04T14:23:47.518Z,9804
2016-07-04T14:24:47.554Z,9852
2016-07-04T14:25:47.849Z,10508
2016-07-04T14:26:47.574Z,10724
2016-07-04T14:27:47.489Z,10544
2016-07-04T14:28:47.640Z,10180
2016-07-04T14:29:49.063Z,9832
2016-07-04T14:30:47.716Z,10084
2016-07-04T14:31:48.922Z,10628
2016-07-04T14:32:50.084Z,11060
2016-07-04T14:33:47.589Z,11388
2016-07-04T14:34:47.597Z,11200
2016-07-04T14:35:47.598Z,11136
2016-07-04T14:36:47.558Z,10840
2016-07-04T14:37:47.542Z,10220
2016-07-04T14:38:47.552Z,10088
2016-07-04T14:39:47.581Z,10476
2016-07-04T14:40:47.665Z,10556
2016-07-04T14:41:48.021Z,10660
2016-07-04T14:42:47.719Z,10984
2016-07-04T14:43:47.576Z,11016
2016-07-04T14:44:48.807Z,10304
2016-07-04T14:45:47.580Z,10288
2016-07-04T14:46:47.570Z,10140
2016-07-04T14:47:47.538Z,9972
2016-07-04T14:48:47.564Z,9564
2016-07-04T14:49:47.545Z,9824
2016-07-04T14:50:47.577Z,9844
2016-07-04T14:51:48.766Z,9056
2016-07-04T14:52:47.581Z,7676
2016-07-04T14:53:47.588Z,7204
2016-07-04T14:54:50.254Z,6844
2016-07-04T14:55:47.564Z,6528
2016-07-04T14:56:48.247Z,6960
2016-07-04T14:57:48.721Z,6944
2016-07-04T14:58:47.558Z,5928
2016-07-04T14:59:47.648Z,5408
2016-07-04T15:00:48.325Z,5488